Bourbonnais, IL (60914)

15:16 CDT le 30 septembre 2016 (GMT -0500)
Dennison Drive | | Change Station

Alt. 728 ft 41.17 °N, 87.88 °W | Updated 10 minutes ago

Overcast
Couvert
65.8 ° F
Paraît 65.8 ° F
N
2.5
Vent Variable Vent de NNE
Gusts 9.3 mph

Aujourd'hui
Haut(e) -- | Bas -- ° F
--% Risque de précip.
Hier
Haut(e) -- | Bas -- ° F
Precip. -- pouce
Pression 30.05 pouce
Visibilité 10.0 Miles terrestres
Nuages Couvert 1800 ft
Point de rosée 61 ° F
Humidité 84%
Précipitations 0.00 pouce
Profondeur de la couche neigeuse Non disponible.
6:47 AM 6:34 PM
Lune descendante, 0% visible
METAR KIKK 301955Z AUTO 01006KT 10SM OVC018 19/16 A3005 RMK AO2 T01860155
Pression 30.05 pouce
Visibilité 10.0 Miles terrestres
Nuages Couvert 1800 ft
Point de rosée 61 ° F
Humidité 84%
Précipitations 0.00 pouce
Profondeur de la couche neigeuse Non disponible.
6:47 AM 6:34 PM
Lune descendante, 0% visible
METAR KIKK 301955Z AUTO 01006KT 10SM OVC018 19/16 A3005 RMK AO2 T01860155

10-Day Weather Forecast

Almanac

Astronomie

Sep. 30, 2016 Lever Coucher
Temps réel
Crépuscule civil
Crépuscule nautique
Crépuscule astronomique
Lune
Durée de lumière visible
Longueur du jour
Tomorrow will be .
, % of the Moon is Illuminated

Extrêmes aujourd'hui

State Highs State Lows

Community

WunderPhotos

Upload Photos

1,942,762 Photos téléchargées !

WunderBlog® & News

Nearby

Qualité de l'air

  Qualité de l'air Indice de la qualité de l'air Polluant
Not available.

Épaisseur de neige

Station Depth Altitude

Activité sismique

Ville Distance Mag. Time & Date
Minimum magnitude displayed is 2.5.

Températures des eaux côtières

Lieu Température

Stations

Stations météo à proximité

Emplacement de la station Température Refroidissement éolien Point de rosée Humidité Vent Precip. Alt. Mise à jour Type
                   

Watches & Warnings

There are currently no watches in effect.